sensor_id;sensor_type;location;lat;lon;timestamp;P1;durP1;ratioP1;P2;durP2;ratioP2
28483;SDS011;15704;48.834;8.736;2024-01-10T00:02:05;7.90;;;6.35;;
28483;SDS011;15704;48.834;8.736;2024-01-10T00:04:31;7.22;;;5.80;;
28483;SDS011;15704;48.834;8.736;2024-01-10T00:06:58;8.55;;;6.22;;
28483;SDS011;15704;48.834;8.736;2024-01-10T00:09:25;9.18;;;6.00;;
28483;SDS011;15704;48.834;8.736;2024-01-10T00:11:52;7.88;;;5.72;;
28483;SDS011;15704;48.834;8.736;2024-01-10T00:14:19;7.07;;;6.00;;
28483;SDS011;15704;48.834;8.736;2024-01-10T00:16:46;6.97;;;5.68;;
28483;SDS011;15704;48.834;8.736;2024-01-10T00:19:13;7.70;;;6.15;;
28483;SDS011;15704;48.834;8.736;2024-01-10T00:21:39;6.78;;;5.63;;
28483;SDS011;15704;48.834;8.736;2024-01-10T00:24:06;8.63;;;6.25;;
28483;SDS011;15704;48.834;8.736;2024-01-10T00:26:33;9.70;;;6.00;;
28483;SDS011;15704;48.834;8.736;2024-01-10T00:29:02;6.60;;;5.70;;
28483;SDS011;15704;48.834;8.736;2024-01-10T00:31:30;7.65;;;5.65;;
28483;SDS011;15704;48.834;8.736;2024-01-10T00:33:57;7.22;;;5.65;;
28483;SDS011;15704;48.834;8.736;2024-01-10T00:36:24;7.53;;;5.87;;
28483;SDS011;15704;48.834;8.736;2024-01-10T00:38:51;7.65;;;5.38;;
28483;SDS011;15704;48.834;8.736;2024-01-10T00:41:18;7.38;;;5.63;;
28483;SDS011;15704;48.834;8.736;2024-01-10T00:43:45;7.70;;;6.00;;
28483;SDS011;15704;48.834;8.736;2024-01-10T00:46:12;7.50;;;5.57;;
28483;SDS011;15704;48.834;8.736;2024-01-10T00:48:38;7.38;;;5.95;;
28483;SDS011;15704;48.834;8.736;2024-01-10T00:51:05;8.00;;;6.18;;
28483;SDS011;15704;48.834;8.736;2024-01-10T00:53:35;8.05;;;6.22;;
28483;SDS011;15704;48.834;8.736;2024-01-10T00:56:02;7.40;;;5.80;;
28483;SDS011;15704;48.834;8.736;2024-01-10T00:58:29;7.97;;;5.80;;
28483;SDS011;15704;48.834;8.736;2024-01-10T01:00:56;7.47;;;5.55;;
28483;SDS011;15704;48.834;8.736;2024-01-10T01:03:22;6.97;;;5.90;;
28483;SDS011;15704;48.834;8.736;2024-01-10T01:05:49;7.50;;;5.82;;
28483;SDS011;15704;48.834;8.736;2024-01-10T01:08:16;7.28;;;5.88;;
28483;SDS011;15704;48.834;8.736;2024-01-10T01:10:43;7.45;;;5.50;;
28483;SDS011;15704;48.834;8.736;2024-01-10T01:13:10;7.25;;;6.00;;
28483;SDS011;15704;48.834;8.736;2024-01-10T01:15:37;7.55;;;6.00;;
28483;SDS011;15704;48.834;8.736;2024-01-10T01:18:04;8.57;;;5.82;;
28483;SDS011;15704;48.834;8.736;2024-01-10T01:20:33;7.18;;;5.60;;
28483;SDS011;15704;48.834;8.736;2024-01-10T01:23:00;7.65;;;5.78;;
28483;SDS011;15704;48.834;8.736;2024-01-10T01:25:27;8.32;;;5.93;;
28483;SDS011;15704;48.834;8.736;2024-01-10T01:27:53;8.65;;;5.95;;
28483;SDS011;15704;48.834;8.736;2024-01-10T01:30:20;8.07;;;6.15;;
28483;SDS011;15704;48.834;8.736;2024-01-10T01:32:48;7.78;;;5.65;;
28483;SDS011;15704;48.834;8.736;2024-01-10T01:35:15;8.90;;;5.70;;
28483;SDS011;15704;48.834;8.736;2024-01-10T01:37:48;6.60;;;5.57;;
28483;SDS011;15704;48.834;8.736;2024-01-10T01:40:15;8.57;;;6.28;;
28483;SDS011;15704;48.834;8.736;2024-01-10T01:42:47;7.70;;;5.60;;
28483;SDS011;15704;48.834;8.736;2024-01-10T01:45:14;8.55;;;6.05;;
28483;SDS011;15704;48.834;8.736;2024-01-10T01:47:41;8.40;;;6.05;;
28483;SDS011;15704;48.834;8.736;2024-01-10T01:50:08;7.65;;;6.05;;
28483;SDS011;15704;48.834;8.736;2024-01-10T01:52:36;8.35;;;6.18;;
28483;SDS011;15704;48.834;8.736;2024-01-10T01:55:04;6.97;;;5.43;;
28483;SDS011;15704;48.834;8.736;2024-01-10T01:57:37;8.60;;;5.95;;
28483;SDS011;15704;48.834;8.736;2024-01-10T02:00:04;7.53;;;5.55;;
28483;SDS011;15704;48.834;8.736;2024-01-10T02:02:32;7.32;;;5.18;;
28483;SDS011;15704;48.834;8.736;2024-01-10T02:05:01;8.52;;;5.95;;
28483;SDS011;15704;48.834;8.736;2024-01-10T02:07:28;8.52;;;6.30;;
28483;SDS011;15704;48.834;8.736;2024-01-10T02:09:55;8.70;;;6.32;;
28483;SDS011;15704;48.834;8.736;2024-01-10T02:12:21;8.32;;;6.32;;
28483;SDS011;15704;48.834;8.736;2024-01-10T02:14:48;8.57;;;6.00;;
28483;SDS011;15704;48.834;8.736;2024-01-10T02:17:15;8.55;;;5.97;;
28483;SDS011;15704;48.834;8.736;2024-01-10T02:19:42;7.93;;;5.88;;
28483;SDS011;15704;48.834;8.736;2024-01-10T02:22:09;7.88;;;5.57;;
28483;SDS011;15704;48.834;8.736;2024-01-10T02:24:37;8.38;;;5.95;;
28483;SDS011;15704;48.834;8.736;2024-01-10T02:27:04;7.30;;;5.80;;
28483;SDS011;15704;48.834;8.736;2024-01-10T02:29:31;9.05;;;6.13;;
28483;SDS011;15704;48.834;8.736;2024-01-10T02:31:58;8.48;;;6.18;;
28483;SDS011;15704;48.834;8.736;2024-01-10T02:34:25;8.27;;;6.05;;
28483;SDS011;15704;48.834;8.736;2024-01-10T02:36:51;10.52;;;6.55;;
28483;SDS011;15704;48.834;8.736;2024-01-10T02:39:18;9.30;;;5.93;;
28483;SDS011;15704;48.834;8.736;2024-01-10T02:41:45;7.00;;;5.85;;
28483;SDS011;15704;48.834;8.736;2024-01-10T02:44:11;7.57;;;5.53;;
28483;SDS011;15704;48.834;8.736;2024-01-10T02:46:40;7.75;;;5.88;;
28483;SDS011;15704;48.834;8.736;2024-01-10T02:49:07;7.80;;;5.63;;
28483;SDS011;15704;48.834;8.736;2024-01-10T02:51:34;7.07;;;5.78;;
28483;SDS011;15704;48.834;8.736;2024-01-10T02:54:01;8.88;;;6.22;;
28483;SDS011;15704;48.834;8.736;2024-01-10T02:56:27;7.85;;;6.22;;
28483;SDS011;15704;48.834;8.736;2024-01-10T02:58:54;7.50;;;5.90;;
28483;SDS011;15704;48.834;8.736;2024-01-10T03:01:21;6.60;;;5.65;;
28483;SDS011;15704;48.834;8.736;2024-01-10T03:03:48;8.90;;;6.47;;
28483;SDS011;15704;48.834;8.736;2024-01-10T03:06:15;8.65;;;5.93;;
28483;SDS011;15704;48.834;8.736;2024-01-10T03:08:41;9.38;;;6.63;;
28483;SDS011;15704;48.834;8.736;2024-01-10T03:11:12;10.20;;;6.50;;
28483;SDS011;15704;48.834;8.736;2024-01-10T03:13:39;8.90;;;6.53;;
28483;SDS011;15704;48.834;8.736;2024-01-10T03:16:06;7.63;;;5.88;;
28483;SDS011;15704;48.834;8.736;2024-01-10T03:18:33;7.85;;;5.88;;
28483;SDS011;15704;48.834;8.736;2024-01-10T03:21:00;9.90;;;6.53;;
28483;SDS011;15704;48.834;8.736;2024-01-10T03:23:27;7.18;;;5.57;;
28483;SDS011;15704;48.834;8.736;2024-01-10T03:25:59;8.10;;;6.28;;
28483;SDS011;15704;48.834;8.736;2024-01-10T03:28:28;9.23;;;6.18;;
28483;SDS011;15704;48.834;8.736;2024-01-10T03:30:58;8.75;;;5.95;;
28483;SDS011;15704;48.834;8.736;2024-01-10T03:33:25;7.03;;;5.60;;
28483;SDS011;15704;48.834;8.736;2024-01-10T03:35:52;8.60;;;6.32;;
28483;SDS011;15704;48.834;8.736;2024-01-10T03:38:18;7.97;;;5.97;;
28483;SDS011;15704;48.834;8.736;2024-01-10T03:40:45;8.35;;;6.00;;
28483;SDS011;15704;48.834;8.736;2024-01-10T03:43:12;7.68;;;5.82;;
28483;SDS011;15704;48.834;8.736;2024-01-10T03:45:39;8.23;;;6.20;;
28483;SDS011;15704;48.834;8.736;2024-01-10T03:48:06;7.22;;;6.13;;
28483;SDS011;15704;48.834;8.736;2024-01-10T03:50:34;8.63;;;5.88;;
28483;SDS011;15704;48.834;8.736;2024-01-10T03:53:00;8.93;;;6.13;;
28483;SDS011;15704;48.834;8.736;2024-01-10T03:55:27;8.70;;;6.25;;
28483;SDS011;15704;48.834;8.736;2024-01-10T03:57:55;8.93;;;5.90;;
28483;SDS011;15704;48.834;8.736;2024-01-10T04:00:22;7.25;;;5.82;;
28483;SDS011;15704;48.834;8.736;2024-01-10T04:02:49;8.45;;;5.95;;
28483;SDS011;15704;48.834;8.736;2024-01-10T04:05:18;9.93;;;6.05;;
28483;SDS011;15704;48.834;8.736;2024-01-10T04:07:46;9.48;;;6.38;;
28483;SDS011;15704;48.834;8.736;2024-01-10T04:10:13;7.35;;;5.93;;
28483;SDS011;15704;48.834;8.736;2024-01-10T04:12:41;7.50;;;5.88;;
28483;SDS011;15704;48.834;8.736;2024-01-10T04:15:11;8.48;;;6.25;;
28483;SDS011;15704;48.834;8.736;2024-01-10T04:17:38;9.07;;;6.30;;
28483;SDS011;15704;48.834;8.736;2024-01-10T04:20:06;8.50;;;6.28;;
28483;SDS011;15704;48.834;8.736;2024-01-10T04:22:33;8.38;;;6.45;;
28483;SDS011;15704;48.834;8.736;2024-01-10T04:25:01;11.02;;;6.55;;
28483;SDS011;15704;48.834;8.736;2024-01-10T04:27:31;8.85;;;5.93;;
28483;SDS011;15704;48.834;8.736;2024-01-10T04:29:57;9.40;;;6.32;;
28483;SDS011;15704;48.834;8.736;2024-01-10T04:32:24;8.52;;;6.38;;
28483;SDS011;15704;48.834;8.736;2024-01-10T04:34:51;7.78;;;6.15;;
28483;SDS011;15704;48.834;8.736;2024-01-10T04:37:18;8.48;;;5.90;;
28483;SDS011;15704;48.834;8.736;2024-01-10T04:39:45;7.53;;;5.80;;
28483;SDS011;15704;48.834;8.736;2024-01-10T04:42:12;7.10;;;5.55;;
28483;SDS011;15704;48.834;8.736;2024-01-10T04:44:39;8.48;;;6.28;;
28483;SDS011;15704;48.834;8.736;2024-01-10T04:47:06;7.68;;;6.15;;
28483;SDS011;15704;48.834;8.736;2024-01-10T04:49:34;7.78;;;6.05;;
28483;SDS011;15704;48.834;8.736;2024-01-10T04:52:03;8.57;;;6.65;;
28483;SDS011;15704;48.834;8.736;2024-01-10T04:54:30;8.27;;;6.10;;
28483;SDS011;15704;48.834;8.736;2024-01-10T04:56:57;8.25;;;6.18;;
28483;SDS011;15704;48.834;8.736;2024-01-10T04:59:24;7.38;;;6.15;;
28483;SDS011;15704;48.834;8.736;2024-01-10T05:01:50;8.20;;;5.90;;
28483;SDS011;15704;48.834;8.736;2024-01-10T05:04:17;8.45;;;6.68;;
28483;SDS011;15704;48.834;8.736;2024-01-10T05:06:44;8.93;;;6.18;;
28483;SDS011;15704;48.834;8.736;2024-01-10T05:09:11;7.40;;;6.07;;
28483;SDS011;15704;48.834;8.736;2024-01-10T05:11:38;9.13;;;6.57;;
28483;SDS011;15704;48.834;8.736;2024-01-10T05:14:09;8.65;;;6.88;;
28483;SDS011;15704;48.834;8.736;2024-01-10T05:16:36;9.13;;;6.32;;
28483;SDS011;15704;48.834;8.736;2024-01-10T05:19:02;7.78;;;5.90;;
28483;SDS011;15704;48.834;8.736;2024-01-10T05:21:30;8.02;;;5.85;;
28483;SDS011;15704;48.834;8.736;2024-01-10T05:23:57;8.85;;;6.22;;
28483;SDS011;15704;48.834;8.736;2024-01-10T05:26:24;8.80;;;6.65;;
28483;SDS011;15704;48.834;8.736;2024-01-10T05:28:51;8.82;;;6.45;;
28483;SDS011;15704;48.834;8.736;2024-01-10T05:31:18;10.88;;;6.63;;
28483;SDS011;15704;48.834;8.736;2024-01-10T05:33:47;8.77;;;6.07;;
28483;SDS011;15704;48.834;8.736;2024-01-10T05:36:14;8.40;;;6.10;;
28483;SDS011;15704;48.834;8.736;2024-01-10T05:38:41;7.60;;;6.07;;
28483;SDS011;15704;48.834;8.736;2024-01-10T05:41:08;8.00;;;6.53;;
28483;SDS011;15704;48.834;8.736;2024-01-10T05:43:35;8.10;;;6.25;;
28483;SDS011;15704;48.834;8.736;2024-01-10T05:46:02;8.85;;;6.40;;
28483;SDS011;15704;48.834;8.736;2024-01-10T05:48:31;8.60;;;6.28;;
28483;SDS011;15704;48.834;8.736;2024-01-10T05:50:58;8.60;;;6.30;;
28483;SDS011;15704;48.834;8.736;2024-01-10T05:53:25;7.95;;;6.55;;
28483;SDS011;15704;48.834;8.736;2024-01-10T05:55:52;8.00;;;5.78;;
28483;SDS011;15704;48.834;8.736;2024-01-10T05:58:19;9.05;;;6.32;;
28483;SDS011;15704;48.834;8.736;2024-01-10T06:00:46;8.55;;;6.28;;
28483;SDS011;15704;48.834;8.736;2024-01-10T06:03:13;8.88;;;6.63;;
28483;SDS011;15704;48.834;8.736;2024-01-10T06:05:40;8.10;;;6.10;;
28483;SDS011;15704;48.834;8.736;2024-01-10T06:08:08;8.13;;;6.03;;
28483;SDS011;15704;48.834;8.736;2024-01-10T06:10:34;8.48;;;6.20;;
28483;SDS011;15704;48.834;8.736;2024-01-10T06:13:03;9.10;;;6.80;;
28483;SDS011;15704;48.834;8.736;2024-01-10T06:15:30;9.63;;;6.70;;
28483;SDS011;15704;48.834;8.736;2024-01-10T06:17:57;8.88;;;6.35;;
28483;SDS011;15704;48.834;8.736;2024-01-10T06:20:24;9.65;;;6.60;;
28483;SDS011;15704;48.834;8.736;2024-01-10T06:22:51;9.85;;;6.97;;
28483;SDS011;15704;48.834;8.736;2024-01-10T06:25:18;9.75;;;6.75;;
28483;SDS011;15704;48.834;8.736;2024-01-10T06:27:45;9.18;;;6.53;;
28483;SDS011;15704;48.834;8.736;2024-01-10T06:30:12;7.78;;;6.25;;
28483;SDS011;15704;48.834;8.736;2024-01-10T06:32:39;8.85;;;6.57;;
28483;SDS011;15704;48.834;8.736;2024-01-10T06:35:06;8.70;;;6.85;;
28483;SDS011;15704;48.834;8.736;2024-01-10T06:37:37;8.02;;;6.32;;
28483;SDS011;15704;48.834;8.736;2024-01-10T06:40:04;8.88;;;6.47;;
28483;SDS011;15704;48.834;8.736;2024-01-10T06:42:32;8.05;;;6.53;;
28483;SDS011;15704;48.834;8.736;2024-01-10T06:44:58;8.70;;;6.60;;
28483;SDS011;15704;48.834;8.736;2024-01-10T06:47:25;8.95;;;6.53;;
28483;SDS011;15704;48.834;8.736;2024-01-10T06:49:52;9.60;;;7.10;;
28483;SDS011;15704;48.834;8.736;2024-01-10T06:52:19;7.13;;;6.15;;
28483;SDS011;15704;48.834;8.736;2024-01-10T06:54:46;7.38;;;6.22;;
28483;SDS011;15704;48.834;8.736;2024-01-10T06:57:13;10.20;;;7.00;;
28483;SDS011;15704;48.834;8.736;2024-01-10T06:59:39;8.35;;;6.07;;
28483;SDS011;15704;48.834;8.736;2024-01-10T07:02:06;8.48;;;6.60;;
28483;SDS011;15704;48.834;8.736;2024-01-10T07:04:36;9.00;;;6.43;;
28483;SDS011;15704;48.834;8.736;2024-01-10T07:07:03;7.90;;;6.00;;
28483;SDS011;15704;48.834;8.736;2024-01-10T07:09:33;7.95;;;6.50;;
28483;SDS011;15704;48.834;8.736;2024-01-10T07:12:05;7.68;;;6.32;;
28483;SDS011;15704;48.834;8.736;2024-01-10T07:14:33;10.63;;;6.80;;
28483;SDS011;15704;48.834;8.736;2024-01-10T07:16:59;9.88;;;7.07;;
28483;SDS011;15704;48.834;8.736;2024-01-10T07:19:26;8.43;;;6.75;;
28483;SDS011;15704;48.834;8.736;2024-01-10T07:21:53;8.52;;;6.13;;
28483;SDS011;15704;48.834;8.736;2024-01-10T07:24:21;8.95;;;6.55;;
28483;SDS011;15704;48.834;8.736;2024-01-10T07:26:48;8.85;;;7.05;;
28483;SDS011;15704;48.834;8.736;2024-01-10T07:29:16;9.50;;;7.07;;
28483;SDS011;15704;48.834;8.736;2024-01-10T07:31:43;9.77;;;6.57;;
28483;SDS011;15704;48.834;8.736;2024-01-10T07:34:09;8.45;;;6.65;;
28483;SDS011;15704;48.834;8.736;2024-01-10T07:36:42;9.55;;;6.20;;
28483;SDS011;15704;48.834;8.736;2024-01-10T07:39:09;10.35;;;7.05;;
28483;SDS011;15704;48.834;8.736;2024-01-10T07:41:36;8.23;;;6.20;;
28483;SDS011;15704;48.834;8.736;2024-01-10T07:44:03;7.22;;;6.22;;
28483;SDS011;15704;48.834;8.736;2024-01-10T07:46:31;11.82;;;7.25;;
28483;SDS011;15704;48.834;8.736;2024-01-10T07:48:58;8.32;;;6.15;;
28483;SDS011;15704;48.834;8.736;2024-01-10T07:51:26;9.63;;;7.10;;
28483;SDS011;15704;48.834;8.736;2024-01-10T07:53:53;8.00;;;6.45;;
28483;SDS011;15704;48.834;8.736;2024-01-10T07:56:20;9.68;;;6.97;;
28483;SDS011;15704;48.834;8.736;2024-01-10T07:58:47;8.32;;;6.55;;
28483;SDS011;15704;48.834;8.736;2024-01-10T08:01:15;9.95;;;6.57;;
28483;SDS011;15704;48.834;8.736;2024-01-10T08:03:41;7.70;;;6.47;;
28483;SDS011;15704;48.834;8.736;2024-01-10T08:06:08;9.15;;;6.80;;
28483;SDS011;15704;48.834;8.736;2024-01-10T08:08:49;8.95;;;6.90;;
28483;SDS011;15704;48.834;8.736;2024-01-10T08:11:16;8.77;;;6.45;;
28483;SDS011;15704;48.834;8.736;2024-01-10T08:13:42;9.48;;;6.82;;
28483;SDS011;15704;48.834;8.736;2024-01-10T08:16:09;9.25;;;6.72;;
28483;SDS011;15704;48.834;8.736;2024-01-10T08:18:38;8.52;;;6.45;;
28483;SDS011;15704;48.834;8.736;2024-01-10T08:21:05;8.75;;;6.88;;
28483;SDS011;15704;48.834;8.736;2024-01-10T08:23:31;8.13;;;6.32;;
28483;SDS011;15704;48.834;8.736;2024-01-10T08:26:00;9.27;;;7.05;;
28483;SDS011;15704;48.834;8.736;2024-01-10T08:28:27;9.15;;;6.75;;
28483;SDS011;15704;48.834;8.736;2024-01-10T08:30:53;8.82;;;6.80;;
28483;SDS011;15704;48.834;8.736;2024-01-10T08:33:30;8.02;;;6.72;;
28483;SDS011;15704;48.834;8.736;2024-01-10T08:35:57;9.35;;;6.93;;
28483;SDS011;15704;48.834;8.736;2024-01-10T08:38:26;9.68;;;7.03;;
28483;SDS011;15704;48.834;8.736;2024-01-10T08:40:53;9.23;;;6.95;;
28483;SDS011;15704;48.834;8.736;2024-01-10T08:43:20;8.55;;;6.60;;
28483;SDS011;15704;48.834;8.736;2024-01-10T08:45:47;9.05;;;6.72;;
28483;SDS011;15704;48.834;8.736;2024-01-10T08:48:13;9.05;;;6.40;;
28483;SDS011;15704;48.834;8.736;2024-01-10T08:50:41;9.23;;;6.55;;
28483;SDS011;15704;48.834;8.736;2024-01-10T08:53:09;9.65;;;7.07;;
28483;SDS011;15704;48.834;8.736;2024-01-10T08:55:36;8.65;;;6.75;;
28483;SDS011;15704;48.834;8.736;2024-01-10T08:58:03;8.93;;;6.57;;
28483;SDS011;15704;48.834;8.736;2024-01-10T09:00:30;8.48;;;6.28;;
28483;SDS011;15704;48.834;8.736;2024-01-10T09:02:58;8.93;;;6.60;;
28483;SDS011;15704;48.834;8.736;2024-01-10T09:05:25;8.10;;;6.32;;
28483;SDS011;15704;48.834;8.736;2024-01-10T09:07:51;9.70;;;7.20;;
28483;SDS011;15704;48.834;8.736;2024-01-10T09:10:20;8.45;;;6.55;;
28483;SDS011;15704;48.834;8.736;2024-01-10T09:12:49;9.35;;;6.75;;
28483;SDS011;15704;48.834;8.736;2024-01-10T09:15:16;8.65;;;6.82;;
28483;SDS011;15704;48.834;8.736;2024-01-10T09:17:43;8.65;;;7.13;;
28483;SDS011;15704;48.834;8.736;2024-01-10T09:20:11;10.40;;;7.72;;
28483;SDS011;15704;48.834;8.736;2024-01-10T09:22:39;10.10;;;7.10;;
28483;SDS011;15704;48.834;8.736;2024-01-10T09:25:06;9.55;;;6.57;;
28483;SDS011;15704;48.834;8.736;2024-01-10T09:27:34;8.57;;;6.95;;
28483;SDS011;15704;48.834;8.736;2024-01-10T09:30:02;10.10;;;7.35;;
28483;SDS011;15704;48.834;8.736;2024-01-10T09:32:29;9.95;;;6.80;;
28483;SDS011;15704;48.834;8.736;2024-01-10T09:34:56;8.85;;;6.63;;
28483;SDS011;15704;48.834;8.736;2024-01-10T09:37:24;8.82;;;6.82;;
28483;SDS011;15704;48.834;8.736;2024-01-10T09:39:51;9.60;;;7.63;;
28483;SDS011;15704;48.834;8.736;2024-01-10T09:42:19;7.95;;;6.68;;
28483;SDS011;15704;48.834;8.736;2024-01-10T09:44:53;8.73;;;7.07;;
28483;SDS011;15704;48.834;8.736;2024-01-10T09:47:23;7.78;;;6.40;;
28483;SDS011;15704;48.834;8.736;2024-01-10T09:49:52;9.27;;;6.88;;
28483;SDS011;15704;48.834;8.736;2024-01-10T09:52:26;8.85;;;6.53;;
28483;SDS011;15704;48.834;8.736;2024-01-10T09:54:54;7.75;;;6.25;;
28483;SDS011;15704;48.834;8.736;2024-01-10T09:57:23;8.68;;;7.10;;
28483;SDS011;15704;48.834;8.736;2024-01-10T09:59:51;7.60;;;6.40;;
28483;SDS011;15704;48.834;8.736;2024-01-10T10:02:20;8.35;;;6.55;;
28483;SDS011;15704;48.834;8.736;2024-01-10T10:04:54;8.00;;;6.22;;
28483;SDS011;15704;48.834;8.736;2024-01-10T10:07:28;7.53;;;6.03;;
28483;SDS011;15704;48.834;8.736;2024-01-10T10:09:54;9.23;;;6.57;;
28483;SDS011;15704;48.834;8.736;2024-01-10T10:15:14;10.13;;;7.32;;
28483;SDS011;15704;48.834;8.736;2024-01-10T10:17:45;9.25;;;7.30;;
28483;SDS011;15704;48.834;8.736;2024-01-10T10:23:00;9.20;;;6.97;;
28483;SDS011;15704;48.834;8.736;2024-01-10T10:28:02;8.30;;;6.47;;
28483;SDS011;15704;48.834;8.736;2024-01-10T10:30:30;9.27;;;6.70;;
28483;SDS011;15704;48.834;8.736;2024-01-10T10:32:59;7.97;;;6.57;;
28483;SDS011;15704;48.834;8.736;2024-01-10T10:35:28;8.40;;;6.50;;
28483;SDS011;15704;48.834;8.736;2024-01-10T10:38:07;8.30;;;6.32;;
28483;SDS011;15704;48.834;8.736;2024-01-10T10:40:36;10.55;;;6.53;;
28483;SDS011;15704;48.834;8.736;2024-01-10T10:43:03;8.07;;;6.50;;
28483;SDS011;15704;48.834;8.736;2024-01-10T10:45:31;8.88;;;6.38;;
28483;SDS011;15704;48.834;8.736;2024-01-10T10:48:00;7.22;;;6.07;;
28483;SDS011;15704;48.834;8.736;2024-01-10T10:50:29;9.65;;;6.47;;
28483;SDS011;15704;48.834;8.736;2024-01-10T10:53:00;9.25;;;6.93;;
28483;SDS011;15704;48.834;8.736;2024-01-10T10:55:30;9.23;;;6.88;;
28483;SDS011;15704;48.834;8.736;2024-01-10T10:57:59;9.05;;;6.72;;
28483;SDS011;15704;48.834;8.736;2024-01-10T11:00:37;8.05;;;5.95;;
28483;SDS011;15704;48.834;8.736;2024-01-10T11:03:07;8.57;;;6.80;;
28483;SDS011;15704;48.834;8.736;2024-01-10T11:05:37;10.25;;;6.90;;
28483;SDS011;15704;48.834;8.736;2024-01-10T11:08:08;8.80;;;6.90;;
28483;SDS011;15704;48.834;8.736;2024-01-10T11:10:37;8.98;;;6.63;;
28483;SDS011;15704;48.834;8.736;2024-01-10T11:21:24;8.70;;;6.28;;
28483;SDS011;15704;48.834;8.736;2024-01-10T11:24:04;8.43;;;6.20;;
28483;SDS011;15704;48.834;8.736;2024-01-10T11:26:32;9.07;;;6.68;;
28483;SDS011;15704;48.834;8.736;2024-01-10T11:29:00;8.90;;;7.15;;
28483;SDS011;15704;48.834;8.736;2024-01-10T11:31:27;8.65;;;6.90;;
28483;SDS011;15704;48.834;8.736;2024-01-10T11:33:56;9.45;;;6.95;;
28483;SDS011;15704;48.834;8.736;2024-01-10T11:36:24;8.05;;;6.47;;
28483;SDS011;15704;48.834;8.736;2024-01-10T11:46:40;8.95;;;6.78;;
28483;SDS011;15704;48.834;8.736;2024-01-10T11:49:17;8.57;;;6.72;;
28483;SDS011;15704;48.834;8.736;2024-01-10T11:54:58;8.63;;;6.72;;
28483;SDS011;15704;48.834;8.736;2024-01-10T11:57:13;9.40;;;7.28;;
28483;SDS011;15704;48.834;8.736;2024-01-10T11:59:45;7.85;;;6.32;;
28483;SDS011;15704;48.834;8.736;2024-01-10T12:02:13;7.82;;;6.55;;
28483;SDS011;15704;48.834;8.736;2024-01-10T12:04:41;10.40;;;7.55;;
28483;SDS011;15704;48.834;8.736;2024-01-10T12:07:14;9.18;;;6.65;;
28483;SDS011;15704;48.834;8.736;2024-01-10T12:09:42;10.25;;;7.10;;
28483;SDS011;15704;48.834;8.736;2024-01-10T12:12:09;9.32;;;7.30;;
28483;SDS011;15704;48.834;8.736;2024-01-10T12:14:39;8.00;;;6.95;;
28483;SDS011;15704;48.834;8.736;2024-01-10T12:17:06;9.02;;;7.13;;
28483;SDS011;15704;48.834;8.736;2024-01-10T12:19:34;10.13;;;7.68;;
28483;SDS011;15704;48.834;8.736;2024-01-10T12:22:03;9.05;;;7.00;;
28483;SDS011;15704;48.834;8.736;2024-01-10T12:25:03;9.05;;;7.00;;
28483;SDS011;15704;48.834;8.736;2024-01-10T12:27:30;9.18;;;7.30;;
28483;SDS011;15704;48.834;8.736;2024-01-10T12:30:00;9.95;;;7.47;;
28483;SDS011;15704;48.834;8.736;2024-01-10T12:32:29;12.05;;;7.78;;
28483;SDS011;15704;48.834;8.736;2024-01-10T12:35:01;9.20;;;7.28;;
28483;SDS011;15704;48.834;8.736;2024-01-10T12:37:29;9.18;;;6.93;;
28483;SDS011;15704;48.834;8.736;2024-01-10T12:39:59;11.73;;;7.22;;
28483;SDS011;15704;48.834;8.736;2024-01-10T12:42:26;9.80;;;7.15;;
28483;SDS011;15704;48.834;8.736;2024-01-10T12:44:53;8.40;;;6.55;;
28483;SDS011;15704;48.834;8.736;2024-01-10T12:47:22;9.90;;;7.30;;
28483;SDS011;15704;48.834;8.736;2024-01-10T12:49:50;9.45;;;7.15;;
28483;SDS011;15704;48.834;8.736;2024-01-10T12:52:17;10.07;;;7.35;;
28483;SDS011;15704;48.834;8.736;2024-01-10T12:54:49;10.35;;;7.65;;
28483;SDS011;15704;48.834;8.736;2024-01-10T12:57:17;9.35;;;7.15;;
28483;SDS011;15704;48.834;8.736;2024-01-10T12:59:44;10.65;;;7.20;;
28483;SDS011;15704;48.834;8.736;2024-01-10T13:02:11;9.65;;;7.07;;
28483;SDS011;15704;48.834;8.736;2024-01-10T13:04:38;11.30;;;7.28;;
28483;SDS011;15704;48.834;8.736;2024-01-10T13:07:05;11.57;;;7.38;;
28483;SDS011;15704;48.834;8.736;2024-01-10T13:09:31;10.20;;;7.32;;
28483;SDS011;15704;48.834;8.736;2024-01-10T13:12:01;9.88;;;6.85;;
28483;SDS011;15704;48.834;8.736;2024-01-10T13:14:28;9.90;;;7.10;;
28483;SDS011;15704;48.834;8.736;2024-01-10T13:16:57;10.60;;;7.65;;
28483;SDS011;15704;48.834;8.736;2024-01-10T13:19:26;9.13;;;7.15;;
28483;SDS011;15704;48.834;8.736;2024-01-10T13:21:53;9.88;;;7.55;;
28483;SDS011;15704;48.834;8.736;2024-01-10T13:24:20;11.07;;;7.45;;
28483;SDS011;15704;48.834;8.736;2024-01-10T13:26:47;10.23;;;7.38;;
28483;SDS011;15704;48.834;8.736;2024-01-10T13:29:15;9.50;;;7.47;;
28483;SDS011;15704;48.834;8.736;2024-01-10T13:31:42;10.48;;;7.57;;
28483;SDS011;15704;48.834;8.736;2024-01-10T13:34:09;9.50;;;6.80;;
28483;SDS011;15704;48.834;8.736;2024-01-10T13:36:38;9.60;;;7.65;;
28483;SDS011;15704;48.834;8.736;2024-01-10T13:39:04;11.30;;;7.40;;
28483;SDS011;15704;48.834;8.736;2024-01-10T13:41:31;9.80;;;7.38;;
28483;SDS011;15704;48.834;8.736;2024-01-10T13:43:59;13.52;;;8.20;;
28483;SDS011;15704;48.834;8.736;2024-01-10T13:46:25;10.70;;;7.07;;
28483;SDS011;15704;48.834;8.736;2024-01-10T13:48:52;11.05;;;7.63;;
28483;SDS011;15704;48.834;8.736;2024-01-10T13:51:19;11.30;;;8.18;;
28483;SDS011;15704;48.834;8.736;2024-01-10T13:53:48;11.30;;;7.72;;
28483;SDS011;15704;48.834;8.736;2024-01-10T13:56:15;14.13;;;7.57;;
28483;SDS011;15704;48.834;8.736;2024-01-10T13:58:43;11.02;;;7.78;;
28483;SDS011;15704;48.834;8.736;2024-01-10T14:01:09;10.32;;;7.65;;
28483;SDS011;15704;48.834;8.736;2024-01-10T14:03:36;11.18;;;7.85;;
28483;SDS011;15704;48.834;8.736;2024-01-10T14:06:03;12.65;;;8.43;;
28483;SDS011;15704;48.834;8.736;2024-01-10T14:08:34;11.07;;;8.15;;
28483;SDS011;15704;48.834;8.736;2024-01-10T14:11:03;11.10;;;7.95;;
28483;SDS011;15704;48.834;8.736;2024-01-10T14:13:32;11.45;;;8.13;;
28483;SDS011;15704;48.834;8.736;2024-01-10T14:15:58;10.40;;;7.95;;
28483;SDS011;15704;48.834;8.736;2024-01-10T14:18:25;11.35;;;8.48;;
28483;SDS011;15704;48.834;8.736;2024-01-10T14:20:52;12.60;;;8.73;;
28483;SDS011;15704;48.834;8.736;2024-01-10T14:23:19;12.95;;;9.30;;
28483;SDS011;15704;48.834;8.736;2024-01-10T14:25:46;13.65;;;9.23;;
28483;SDS011;15704;48.834;8.736;2024-01-10T14:28:13;11.77;;;8.77;;
28483;SDS011;15704;48.834;8.736;2024-01-10T14:30:40;12.63;;;8.82;;
28483;SDS011;15704;48.834;8.736;2024-01-10T14:33:07;14.52;;;8.77;;
28483;SDS011;15704;48.834;8.736;2024-01-10T14:35:34;15.35;;;9.48;;
28483;SDS011;15704;48.834;8.736;2024-01-10T14:38:01;11.48;;;8.80;;
28483;SDS011;15704;48.834;8.736;2024-01-10T14:40:29;11.73;;;8.68;;
28483;SDS011;15704;48.834;8.736;2024-01-10T14:42:56;13.50;;;9.18;;
28483;SDS011;15704;48.834;8.736;2024-01-10T14:45:23;13.77;;;9.13;;
28483;SDS011;15704;48.834;8.736;2024-01-10T14:47:51;13.38;;;8.93;;
28483;SDS011;15704;48.834;8.736;2024-01-10T14:50:18;11.02;;;8.48;;
28483;SDS011;15704;48.834;8.736;2024-01-10T14:52:45;12.25;;;8.60;;
28483;SDS011;15704;48.834;8.736;2024-01-10T14:55:12;13.15;;;8.52;;
28483;SDS011;15704;48.834;8.736;2024-01-10T14:57:41;12.20;;;8.40;;
28483;SDS011;15704;48.834;8.736;2024-01-10T15:00:08;11.15;;;8.45;;
28483;SDS011;15704;48.834;8.736;2024-01-10T15:02:36;11.77;;;8.57;;
28483;SDS011;15704;48.834;8.736;2024-01-10T15:05:05;11.18;;;8.30;;
28483;SDS011;15704;48.834;8.736;2024-01-10T15:07:32;12.32;;;8.52;;
28483;SDS011;15704;48.834;8.736;2024-01-10T15:10:00;10.45;;;8.07;;
28483;SDS011;15704;48.834;8.736;2024-01-10T15:12:29;13.05;;;8.38;;
28483;SDS011;15704;48.834;8.736;2024-01-10T15:14:56;10.85;;;7.65;;
28483;SDS011;15704;48.834;8.736;2024-01-10T15:17:26;11.07;;;8.50;;